createdAt,value
2018-02-24T00:02:27.061Z,78.26
2018-02-24T00:04:54.658Z,78.19
2018-02-24T00:07:22.203Z,78.24
2018-02-24T00:09:49.747Z,78.19
2018-02-24T00:12:17.427Z,78.05
2018-02-24T00:14:44.963Z,78.24
2018-02-24T00:17:12.518Z,78.57
2018-02-24T00:19:40.181Z,79.27
2018-02-24T00:22:07.776Z,79.94
2018-02-24T00:24:35.322Z,80.15
2018-02-24T00:27:03.033Z,80.36
2018-02-24T00:29:30.578Z,80.56
2018-02-24T00:31:58.127Z,80.75
2018-02-24T00:34:25.810Z,81.01
2018-02-24T00:36:53.348Z,81.03
2018-02-24T00:39:20.898Z,81.17
2018-02-24T00:41:48.765Z,81.14
2018-02-24T00:44:16.349Z,81.34
2018-02-24T00:46:43.884Z,81.52
2018-02-24T00:49:11.582Z,81.55
2018-02-24T00:51:39.130Z,81.82
2018-02-24T00:54:06.685Z,82.04
2018-02-24T00:56:34.395Z,82.35
2018-02-24T00:59:01.970Z,82.65
2018-02-24T01:01:29.544Z,83.19
2018-02-24T01:03:57.662Z,83.84
2018-02-24T01:06:25.223Z,84.06
2018-02-24T01:08:52.755Z,84.24
2018-02-24T01:11:20.432Z,84.40
2018-02-24T01:13:47.976Z,84.68
2018-02-24T01:16:15.537Z,84.85
2018-02-24T01:18:43.408Z,85.16
2018-02-24T01:21:11.017Z,85.48
2018-02-24T01:23:38.592Z,85.67
2018-02-24T01:26:06.186Z,85.58
2018-02-24T01:28:33.721Z,85.52
2018-02-24T01:31:01.271Z,85.76
2018-02-24T01:33:29.146Z,85.61
2018-02-24T01:35:56.689Z,85.44
2018-02-24T01:38:24.246Z,85.52
2018-02-24T01:40:51.838Z,85.12
2018-02-24T01:43:19.373Z,85.34
2018-02-24T01:45:46.918Z,85.41
2018-02-24T01:48:15.202Z,85.34
2018-02-24T01:50:42.786Z,85.31
2018-02-24T01:53:10.326Z,85.08
2018-02-24T01:55:41.522Z,84.92
2018-02-24T01:58:09.071Z,84.60
2018-02-24T02:00:36.639Z,84.52
2018-02-24T02:03:04.215Z,84.38
2018-02-24T02:05:31.777Z,84.38
2018-02-24T02:07:59.328Z,84.49
2018-02-24T02:10:27.184Z,84.46
2018-02-24T02:12:54.732Z,84.70
2018-02-24T02:15:22.280Z,84.70
2018-02-24T02:17:49.866Z,84.66
2018-02-24T02:20:17.435Z,84.69
2018-02-24T02:22:45.031Z,84.72
2018-02-24T02:25:12.589Z,84.54
2018-02-24T02:27:40.130Z,84.67
2018-02-24T02:30:07.818Z,84.79
2018-02-24T02:32:35.359Z,84.84
2018-02-24T02:35:02.892Z,84.62
2018-02-24T02:40:20.625Z,84.57
2018-02-24T02:42:48.502Z,84.70
2018-02-24T02:45:16.050Z,84.80
2018-02-24T02:47:43.599Z,84.95
2018-02-24T02:50:11.283Z,84.75
2018-02-24T02:52:38.830Z,84.69
2018-02-24T02:55:06.376Z,84.41
2018-02-24T02:57:34.173Z,84.44
2018-02-24T03:00:01.714Z,84.51
2018-02-24T03:02:29.274Z,84.53
2018-02-24T03:04:56.853Z,84.63
2018-02-24T03:07:24.406Z,84.76
2018-02-24T03:09:51.950Z,84.84
2018-02-24T03:12:19.802Z,84.52
2018-02-24T03:14:47.346Z,84.39
2018-02-24T03:17:14.914Z,84.34
2018-02-24T03:19:42.653Z,84.28
2018-02-24T03:22:10.209Z,84.44
2018-02-24T03:24:37.785Z,84.64
2018-02-24T03:27:05.374Z,84.59
2018-02-24T03:29:32.915Z,84.56
2018-02-24T03:32:00.479Z,84.37
2018-02-24T03:34:28.217Z,84.33
2018-02-24T03:36:55.761Z,84.42
2018-02-24T03:39:23.302Z,84.45
2018-02-24T03:41:50.910Z,84.27
2018-02-24T03:44:18.474Z,83.99
2018-02-24T03:46:46.055Z,83.97
2018-02-24T03:49:13.637Z,84.01
2018-02-24T03:51:41.200Z,83.91
2018-02-24T03:54:08.746Z,84.32
2018-02-24T03:56:36.504Z,84.35
2018-02-24T03:59:04.052Z,84.36
2018-02-24T04:01:31.620Z,84.49
2018-02-24T04:03:59.213Z,84.37
2018-02-24T04:06:26.763Z,84.33
2018-02-24T04:08:54.322Z,84.39
2018-02-24T04:11:22.020Z,84.39
2018-02-24T04:13:49.574Z,84.60
2018-02-24T04:16:17.124Z,84.81
2018-02-24T04:18:44.862Z,84.67
2018-02-24T04:21:12.402Z,84.71
2018-02-24T04:23:39.950Z,84.50
2018-02-24T04:26:07.515Z,84.66
2018-02-24T04:28:35.069Z,84.75
2018-02-24T04:31:02.679Z,84.69
2018-02-24T04:33:30.218Z,84.82
2018-02-24T04:35:57.791Z,84.96
2018-02-24T04:38:25.490Z,84.84
2018-02-24T04:40:53.042Z,84.66
2018-02-24T04:43:20.582Z,84.70
2018-02-24T04:45:48.170Z,84.60
2018-02-24T04:48:15.709Z,84.45
2018-02-24T04:50:43.272Z,84.48
2018-02-24T04:53:10.837Z,84.33
2018-02-24T04:55:38.394Z,84.60
2018-02-24T04:58:05.972Z,84.71
2018-02-24T05:00:33.543Z,84.66
2018-02-24T05:03:01.100Z,84.57
2018-02-24T05:05:28.641Z,84.52
2018-02-24T05:07:56.245Z,84.55
2018-02-24T05:10:23.807Z,84.52
2018-02-24T05:12:51.373Z,84.58
2018-02-24T05:15:19.091Z,84.60
2018-02-24T05:17:46.667Z,84.55
2018-02-24T05:20:14.223Z,84.55
2018-02-24T05:22:41.800Z,84.23
2018-02-24T05:25:09.365Z,84.15
2018-02-24T05:27:36.929Z,84.03
2018-02-24T05:30:04.637Z,83.96
2018-02-24T05:32:32.205Z,83.95
2018-02-24T05:34:59.748Z,83.83
2018-02-24T05:37:27.652Z,83.75
2018-02-24T05:39:55.198Z,83.60
2018-02-24T05:42:22.736Z,83.27
2018-02-24T05:44:50.314Z,83.09
2018-02-24T05:47:17.858Z,82.73
2018-02-24T05:49:45.433Z,82.25
2018-02-24T05:52:13.033Z,81.47
2018-02-24T05:54:40.588Z,80.77
2018-02-24T05:57:08.133Z,80.01
2018-02-24T05:59:35.722Z,79.75
2018-02-24T06:02:03.308Z,79.07
2018-02-24T06:04:30.865Z,78.77
2018-02-24T06:06:58.634Z,78.12
2018-02-24T06:09:26.182Z,77.64
2018-02-24T06:11:53.734Z,77.64
2018-02-24T06:14:21.302Z,77.24
2018-02-24T06:16:48.866Z,76.58
2018-02-24T06:19:16.472Z,75.95
2018-02-24T06:21:44.051Z,75.75
2018-02-24T06:24:11.598Z,74.74
2018-02-24T06:26:39.183Z,73.62
2018-02-24T06:29:06.782Z,71.18
2018-02-24T06:31:34.348Z,69.00
2018-02-24T06:34:01.895Z,66.53
2018-02-24T06:36:29.651Z,64.45
2018-02-24T06:38:57.214Z,62.19
2018-02-24T06:41:24.773Z,60.58
2018-02-24T06:43:52.379Z,59.47
2018-02-24T06:46:19.935Z,60.09
2018-02-24T06:48:47.538Z,59.16
2018-02-24T06:51:15.423Z,59.48
2018-02-24T06:53:42.962Z,60.48
2018-02-24T06:56:10.513Z,60.92
2018-02-24T06:58:38.108Z,60.42
2018-02-24T07:01:05.688Z,60.41
2018-02-24T07:03:33.250Z,60.22
2018-02-24T07:06:00.840Z,61.87
2018-02-24T07:08:28.405Z,63.31
2018-02-24T07:10:55.956Z,63.43
2018-02-24T07:13:23.554Z,64.16
2018-02-24T07:15:51.106Z,63.04
2018-02-24T07:18:18.680Z,62.97
2018-02-24T07:20:46.289Z,63.14
2018-02-24T07:23:13.859Z,62.60
2018-02-24T07:25:41.436Z,62.56
2018-02-24T07:28:09.182Z,62.53
2018-02-24T07:30:36.722Z,63.50
2018-02-24T07:33:04.279Z,63.30
2018-02-24T07:35:31.859Z,63.64
2018-02-24T07:37:59.445Z,62.97
2018-02-24T07:40:27.008Z,62.82
2018-02-24T07:42:54.695Z,63.44
2018-02-24T07:45:22.271Z,63.74
2018-02-24T07:47:49.823Z,63.37
2018-02-24T07:50:17.568Z,62.01
2018-02-24T07:52:45.108Z,62.31
2018-02-24T07:55:12.659Z,62.94
2018-02-24T07:57:40.473Z,62.47
2018-02-24T08:00:08.040Z,63.26
2018-02-24T08:02:35.592Z,63.56
2018-02-24T08:05:03.174Z,63.31
2018-02-24T08:07:30.730Z,62.72
2018-02-24T08:09:58.316Z,61.87
2018-02-24T08:12:25.900Z,60.14
2018-02-24T08:14:53.456Z,60.43
2018-02-24T08:17:21.006Z,60.52
2018-02-24T08:19:48.736Z,60.76
2018-02-24T08:22:16.271Z,60.91
2018-02-24T08:24:43.814Z,60.42
2018-02-24T08:27:11.677Z,60.89
2018-02-24T08:29:39.234Z,60.48
2018-02-24T08:32:06.777Z,61.04
2018-02-24T08:34:34.400Z,60.13
2018-02-24T08:37:01.934Z,60.04
2018-02-24T08:39:29.484Z,59.74
2018-02-24T08:41:57.219Z,59.10
2018-02-24T08:44:24.795Z,59.13
2018-02-24T08:46:52.371Z,58.59
2018-02-24T08:49:20.057Z,58.70
2018-02-24T08:51:47.615Z,58.31
2018-02-24T08:54:15.176Z,57.15
2018-02-24T08:56:42.790Z,57.60
2018-02-24T08:59:10.322Z,57.41
2018-02-24T09:01:37.883Z,59.18
2018-02-24T09:04:05.620Z,59.49
2018-02-24T09:06:33.206Z,59.34
2018-02-24T09:09:00.758Z,59.79
2018-02-24T09:11:28.523Z,59.71
2018-02-24T09:13:56.064Z,60.06
2018-02-24T09:16:23.630Z,60.62
2018-02-24T09:18:51.571Z,61.53
2018-02-24T09:21:19.122Z,61.82
2018-02-24T09:23:46.680Z,60.92
2018-02-24T09:26:14.249Z,61.31
2018-02-24T09:28:41.803Z,61.57
2018-02-24T09:31:09.385Z,61.47
2018-02-24T09:33:36.942Z,61.42
2018-02-24T09:36:04.495Z,61.02
2018-02-24T09:38:32.422Z,60.06
2018-02-24T09:40:59.971Z,59.80
2018-02-24T09:43:27.534Z,59.45
2018-02-24T09:45:55.104Z,59.20
2018-02-24T09:48:22.667Z,59.79
2018-02-24T09:50:50.218Z,59.49
2018-02-24T09:53:17.973Z,59.79
2018-02-24T09:55:45.515Z,59.44
2018-02-24T09:58:13.068Z,59.62
2018-02-24T10:00:42.380Z,59.22
2018-02-24T10:03:09.941Z,59.07
2018-02-24T10:05:37.524Z,58.61
2018-02-24T10:08:05.510Z,58.65
2018-02-24T10:10:33.065Z,58.85
2018-02-24T10:13:00.614Z,58.97
2018-02-24T10:15:28.216Z,58.09
2018-02-24T10:17:55.780Z,57.28
2018-02-24T10:20:23.360Z,57.09
2018-02-24T10:22:51.062Z,57.85
2018-02-24T10:25:18.623Z,57.76
2018-02-24T10:27:46.164Z,57.48
2018-02-24T10:30:13.753Z,57.96
2018-02-24T10:32:41.330Z,58.39
2018-02-24T10:35:08.897Z,59.55
2018-02-24T10:37:36.499Z,59.84
2018-02-24T10:40:04.062Z,60.35
2018-02-24T10:42:31.617Z,60.24
2018-02-24T10:44:59.335Z,60.40
2018-02-24T10:47:26.979Z,60.35
2018-02-24T10:49:54.540Z,60.12
2018-02-24T10:52:22.133Z,60.48
2018-02-24T10:54:49.692Z,61.70
2018-02-24T10:57:17.243Z,61.97
2018-02-24T10:59:44.853Z,62.20
2018-02-24T11:02:12.428Z,62.27
2018-02-24T11:04:39.987Z,63.95
2018-02-24T11:07:07.622Z,64.11
2018-02-24T11:09:35.213Z,65.12
2018-02-24T11:12:02.758Z,64.94
2018-02-24T11:14:30.513Z,64.46
2018-02-24T11:16:58.096Z,64.29
2018-02-24T11:19:25.647Z,63.86
2018-02-24T11:21:53.379Z,64.38
2018-02-24T11:24:20.946Z,64.45
2018-02-24T11:26:48.494Z,64.54
2018-02-24T11:29:16.255Z,64.28
2018-02-24T11:31:43.831Z,64.80
2018-02-24T11:34:11.389Z,65.24
2018-02-24T11:36:39.251Z,65.99
2018-02-24T11:39:06.803Z,65.48
2018-02-24T11:41:34.368Z,65.42
2018-02-24T11:44:02.134Z,65.61
2018-02-24T11:46:29.700Z,65.81
2018-02-24T11:48:57.274Z,66.43
2018-02-24T11:51:25.014Z,66.65
2018-02-24T11:53:52.592Z,66.83
2018-02-24T11:56:20.148Z,65.22
2018-02-24T11:58:47.739Z,65.42
2018-02-24T12:01:15.306Z,65.05
2018-02-24T12:03:42.868Z,64.66
2018-02-24T12:06:10.549Z,64.85
2018-02-24T12:08:38.105Z,64.39
2018-02-24T12:11:05.694Z,64.73
2018-02-24T12:13:33.581Z,65.14
2018-02-24T12:16:01.130Z,65.02
2018-02-24T12:18:28.674Z,65.57
2018-02-24T12:20:56.542Z,66.00
2018-02-24T12:23:24.116Z,66.48
2018-02-24T12:25:51.682Z,66.58
2018-02-24T12:28:19.371Z,66.50
2018-02-24T12:30:46.938Z,66.37
2018-02-24T12:33:14.487Z,66.02
2018-02-24T12:35:42.198Z,65.50
2018-02-24T12:38:09.760Z,65.48
2018-02-24T12:40:37.320Z,65.66
2018-02-24T12:43:04.905Z,65.75
2018-02-24T12:45:32.453Z,65.12
2018-02-24T12:48:00.017Z,65.18
2018-02-24T12:50:27.602Z,65.10
2018-02-24T12:52:55.188Z,65.60
2018-02-24T12:55:22.743Z,64.97
2018-02-24T12:57:50.351Z,65.05
2018-02-24T13:00:17.928Z,65.21
2018-02-24T13:02:45.507Z,64.72
2018-02-24T13:05:13.314Z,64.13
2018-02-24T13:07:40.886Z,64.03
2018-02-24T13:10:08.456Z,63.69
2018-02-24T13:12:36.050Z,64.19
2018-02-24T13:15:03.647Z,64.80
2018-02-24T13:17:31.231Z,64.74
2018-02-24T13:19:58.984Z,64.49
2018-02-24T13:22:26.579Z,63.85
2018-02-24T13:24:54.140Z,64.02
2018-02-24T13:27:21.744Z,64.05
2018-02-24T13:29:49.307Z,64.51
2018-02-24T13:32:16.901Z,64.65
2018-02-24T13:34:44.503Z,64.63
2018-02-24T13:37:12.095Z,64.71
2018-02-24T13:39:39.650Z,65.28
2018-02-24T13:42:07.371Z,65.33
2018-02-24T13:44:34.973Z,64.80
2018-02-24T13:47:02.542Z,65.60
2018-02-24T13:49:30.153Z,64.86
2018-02-24T13:51:57.710Z,65.22
2018-02-24T13:54:25.328Z,65.37
2018-02-24T13:56:53.214Z,65.45
2018-02-24T13:59:20.773Z,65.78
2018-02-24T14:01:48.348Z,66.51
2018-02-24T14:04:16.049Z,66.77
2018-02-24T14:06:43.631Z,66.65
2018-02-24T14:09:11.189Z,66.71
2018-02-24T14:11:38.837Z,66.82
2018-02-24T14:14:06.432Z,67.77
2018-02-24T14:16:33.996Z,67.84
2018-02-24T14:19:01.591Z,67.59
2018-02-24T14:21:29.164Z,67.28
2018-02-24T14:23:56.722Z,67.94
2018-02-24T14:26:24.271Z,67.97
2018-02-24T14:28:51.844Z,68.75
2018-02-24T14:31:19.577Z,69.13
2018-02-24T14:33:47.140Z,69.24
2018-02-24T14:36:14.715Z,69.72
2018-02-24T14:38:42.308Z,69.75
2018-02-24T14:41:09.895Z,69.88
2018-02-24T14:43:37.447Z,70.28
2018-02-24T14:46:05.204Z,70.12
2018-02-24T14:48:32.772Z,70.63
2018-02-24T14:51:00.376Z,71.14
2018-02-24T14:53:28.017Z,71.75
2018-02-24T14:55:55.582Z,72.01
2018-02-24T14:58:23.153Z,72.32
2018-02-24T15:00:50.793Z,72.84
2018-02-24T15:03:18.380Z,73.15
2018-02-24T15:05:45.953Z,73.10
2018-02-24T15:08:13.609Z,73.20
2018-02-24T15:10:42.038Z,73.18
2018-02-24T15:13:09.651Z,72.93
2018-02-24T15:15:37.408Z,72.81
2018-02-24T15:18:04.995Z,73.06
2018-02-24T15:20:32.567Z,72.57
2018-02-24T15:23:00.466Z,73.15
2018-02-24T15:25:28.055Z,73.46
2018-02-24T15:27:55.635Z,73.83
2018-02-24T15:30:23.259Z,74.22
2018-02-24T15:32:50.834Z,73.96
2018-02-24T15:35:18.674Z,73.32
2018-02-24T15:37:46.267Z,73.75
2018-02-24T15:40:13.821Z,73.70
2018-02-24T15:42:41.395Z,73.57
2018-02-24T15:45:09.000Z,73.74
2018-02-24T15:47:36.578Z,74.26
2018-02-24T15:50:04.168Z,74.91
2018-02-24T15:52:32.087Z,74.70
2018-02-24T15:55:00.563Z,74.62
2018-02-24T15:57:28.128Z,74.79
2018-02-24T15:59:55.766Z,74.79
2018-02-24T16:02:23.357Z,74.92
2018-02-24T16:04:50.913Z,74.82
2018-02-24T16:07:18.496Z,74.93
2018-02-24T16:09:46.059Z,74.51
2018-02-24T16:12:13.652Z,74.66
2018-02-24T16:14:41.543Z,75.05
2018-02-24T16:17:09.165Z,75.04
2018-02-24T16:19:36.723Z,74.88
2018-02-24T16:22:04.374Z,74.90
2018-02-24T16:24:31.943Z,74.87
2018-02-24T16:26:59.520Z,74.63
2018-02-24T16:29:27.127Z,75.00
2018-02-24T16:31:54.693Z,75.47
2018-02-24T16:34:22.272Z,75.65
2018-02-24T16:36:50.018Z,75.91
2018-02-24T16:39:17.604Z,76.39
2018-02-24T16:41:45.192Z,76.14
2018-02-24T16:44:12.801Z,76.05
2018-02-24T16:46:40.397Z,75.95
2018-02-24T16:49:07.995Z,76.33
2018-02-24T16:51:35.884Z,76.63
2018-02-24T16:54:03.490Z,76.40
2018-02-24T16:56:31.064Z,76.12
2018-02-24T16:58:58.674Z,76.34
2018-02-24T17:01:26.264Z,76.56
2018-02-24T17:03:53.845Z,76.22
2018-02-24T17:06:21.591Z,76.41
2018-02-24T17:08:49.215Z,75.58
2018-02-24T17:11:16.785Z,75.92
2018-02-24T17:13:44.552Z,76.14
2018-02-24T17:16:12.103Z,76.06
2018-02-24T17:18:39.683Z,76.08
2018-02-24T17:21:07.323Z,76.35
2018-02-24T17:23:34.854Z,76.09
2018-02-24T17:26:02.420Z,75.75
2018-02-24T17:28:30.055Z,76.35
2018-02-24T17:30:57.658Z,75.97
2018-02-24T17:33:25.209Z,75.74
2018-02-24T17:35:52.820Z,74.90
2018-02-24T17:38:20.418Z,75.23
2018-02-24T17:40:47.996Z,75.38
2018-02-24T17:43:15.742Z,75.30
2018-02-24T17:45:43.304Z,75.59
2018-02-24T17:48:10.873Z,75.55
2018-02-24T17:50:38.482Z,76.19
2018-02-24T17:53:06.046Z,75.85
2018-02-24T17:55:33.613Z,75.78
2018-02-24T17:58:01.244Z,75.84
2018-02-24T18:00:28.807Z,75.73
2018-02-24T18:02:56.428Z,76.04
2018-02-24T18:05:24.177Z,75.65
2018-02-24T18:07:51.731Z,75.67
2018-02-24T18:10:19.316Z,76.02
2018-02-24T18:12:47.036Z,76.37
2018-02-24T18:15:14.608Z,76.53
2018-02-24T18:17:42.161Z,75.95
2018-02-24T18:20:09.931Z,76.52
2018-02-24T18:22:37.501Z,76.83
2018-02-24T18:25:05.088Z,76.96
2018-02-24T18:27:32.639Z,77.03
2018-02-24T18:30:00.200Z,77.01
2018-02-24T18:32:27.804Z,76.91
2018-02-24T18:34:55.372Z,76.93
2018-02-24T18:37:22.922Z,75.99
2018-02-24T18:39:50.669Z,76.33
2018-02-24T18:42:18.232Z,76.33
2018-02-24T18:44:45.782Z,76.36
2018-02-24T18:47:13.567Z,76.50
2018-02-24T18:49:41.116Z,76.16
2018-02-24T18:52:08.702Z,76.64
2018-02-24T18:54:36.404Z,76.89
2018-02-24T18:57:04.011Z,76.57
2018-02-24T18:59:31.586Z,76.08
2018-02-24T19:01:59.354Z,76.45
2018-02-24T19:04:26.916Z,76.84
2018-02-24T19:06:54.486Z,76.46
2018-02-24T19:09:22.089Z,76.25
2018-02-24T19:11:49.699Z,76.53
2018-02-24T19:14:18.448Z,76.62
2018-02-24T19:16:46.244Z,76.65
2018-02-24T19:19:14.793Z,77.03
2018-02-24T19:21:42.343Z,76.61
2018-02-24T19:24:10.085Z,76.71
2018-02-24T19:26:37.736Z,76.31
2018-02-24T19:29:05.372Z,76.40
2018-02-24T19:31:32.968Z,76.76
2018-02-24T19:34:00.594Z,77.16
2018-02-24T19:36:28.176Z,77.29
2018-02-24T19:38:56.146Z,77.03
2018-02-24T19:41:23.787Z,77.42
2018-02-24T19:43:51.365Z,77.33
2018-02-24T19:46:19.254Z,77.42
2018-02-24T19:48:46.824Z,77.05
2018-02-24T19:51:14.411Z,76.90
2018-02-24T19:53:42.150Z,77.31
2018-02-24T19:56:09.831Z,76.85
2018-02-24T19:58:37.473Z,77.54
2018-02-24T20:01:05.273Z,77.29
2018-02-24T20:03:32.898Z,77.75
2018-02-24T20:06:00.503Z,77.72
2018-02-24T20:08:28.170Z,77.63
2018-02-24T20:10:55.758Z,78.22
2018-02-24T20:13:23.382Z,78.11
2018-02-24T20:15:51.293Z,77.50
2018-02-24T20:18:18.890Z,77.55
2018-02-24T20:20:46.456Z,77.31
2018-02-24T20:23:14.200Z,77.77
2018-02-24T20:25:41.858Z,78.02
2018-02-24T20:28:09.484Z,77.71
2018-02-24T20:30:37.116Z,78.11
2018-02-24T20:33:04.675Z,78.44
2018-02-24T20:35:32.240Z,77.78
2018-02-24T20:37:59.975Z,77.55
2018-02-24T20:40:27.539Z,77.35
2018-02-24T20:42:55.128Z,77.53
2018-02-24T20:45:23.117Z,77.38
2018-02-24T20:47:50.682Z,76.80
2018-02-24T20:50:18.273Z,77.02
2018-02-24T20:52:46.248Z,77.10
2018-02-24T20:55:14.026Z,76.34
2018-02-24T20:57:41.643Z,76.84
2018-02-24T21:00:09.270Z,76.68
2018-02-24T21:02:36.877Z,76.98
2018-02-24T21:05:04.462Z,76.83
2018-02-24T21:07:32.108Z,76.32
2018-02-24T21:09:59.724Z,76.51
2018-02-24T21:12:27.302Z,76.48
2018-02-24T21:14:55.104Z,75.90
2018-02-24T21:17:22.670Z,76.05
2018-02-24T21:19:50.219Z,76.02
2018-02-24T21:22:18.094Z,75.03
2018-02-24T21:24:45.685Z,75.71
2018-02-24T21:27:13.246Z,75.94
2018-02-24T21:29:40.973Z,76.10
2018-02-24T21:32:08.550Z,75.84
2018-02-24T21:34:36.136Z,75.71
2018-02-24T21:37:04.024Z,76.04
2018-02-24T21:39:31.593Z,76.07
2018-02-24T21:41:59.143Z,75.78
2018-02-24T21:44:26.885Z,75.83
2018-02-24T21:46:54.458Z,75.98
2018-02-24T21:49:22.010Z,75.82
2018-02-24T21:51:49.971Z,75.01
2018-02-24T21:54:17.527Z,75.29
2018-02-24T21:56:45.155Z,75.86
2018-02-24T21:59:12.787Z,75.72
2018-02-24T22:01:40.344Z,75.55
2018-02-24T22:04:07.941Z,76.14
2018-02-24T22:06:35.828Z,76.11
2018-02-24T22:09:03.486Z,75.43
2018-02-24T22:11:31.075Z,74.30
2018-02-24T22:13:58.678Z,74.30
2018-02-24T22:16:26.243Z,74.82
2018-02-24T22:18:53.808Z,75.16
2018-02-24T22:21:21.552Z,74.48
2018-02-24T22:23:49.115Z,75.10
2018-02-24T22:26:16.687Z,75.00
2018-02-24T22:28:44.382Z,74.36
2018-02-24T22:31:11.950Z,73.42
2018-02-24T22:33:39.515Z,72.64
2018-02-24T22:36:07.101Z,73.87
2018-02-24T22:38:34.671Z,74.08
2018-02-24T22:41:02.253Z,75.27
2018-02-24T22:43:30.001Z,75.06
2018-02-24T22:45:57.567Z,74.58
2018-02-24T22:48:30.598Z,74.68
2018-02-24T22:50:58.539Z,73.66
2018-02-24T22:53:26.095Z,74.25
2018-02-24T22:55:53.696Z,73.38
2018-02-24T22:58:21.310Z,73.24
2018-02-24T23:00:49.102Z,72.31
2018-02-24T23:03:16.673Z,72.62
2018-02-24T23:05:44.392Z,72.20
2018-02-24T23:08:11.956Z,72.25
2018-02-24T23:10:39.522Z,72.43
2018-02-24T23:13:07.139Z,72.45
2018-02-24T23:15:34.709Z,72.96
2018-02-24T23:18:02.263Z,72.90
2018-02-24T23:20:29.866Z,72.12
2018-02-24T23:22:57.440Z,72.14
2018-02-24T23:25:24.991Z,72.92
2018-02-24T23:27:52.556Z,73.65
2018-02-24T23:30:20.109Z,72.32
2018-02-24T23:32:47.707Z,71.75
2018-02-24T23:35:15.265Z,72.22
2018-02-24T23:37:42.821Z,72.13
2018-02-24T23:40:10.729Z,72.22
2018-02-24T23:42:38.307Z,71.69
2018-02-24T23:45:05.868Z,71.41
2018-02-24T23:47:33.583Z,71.01
2018-02-24T23:50:01.130Z,70.52
2018-02-24T23:52:28.702Z,70.82
2018-02-24T23:54:56.296Z,70.96
2018-02-24T23:57:23.853Z,70.47
2018-02-24T23:59:51.411Z,70.85
